createdAt,value
2023-03-26T00:09:21.062Z,99116.67
2023-03-26T00:24:29.656Z,99119.39
2023-03-26T00:39:33.794Z,99105.38
2023-03-26T00:54:36.390Z,99092.95
2023-03-26T01:09:45.723Z,99087.71
2023-03-26T01:24:54.095Z,99084.73
2023-03-26T01:40:07.132Z,99084.15
2023-03-26T01:55:11.872Z,99087.07
2023-03-26T02:10:22.314Z,99082.64
2023-03-26T02:25:24.910Z,99077.27
2023-03-26T02:40:28.051Z,99072.46
2023-03-26T02:55:30.782Z,99067.60
2023-03-26T03:10:33.359Z,99070.43
2023-03-26T03:25:39.571Z,99070.86
2023-03-26T03:40:45.558Z,99072.48
2023-03-26T03:55:53.684Z,99095.95
2023-03-26T04:10:59.105Z,99100.36
2023-03-26T04:26:05.548Z,99091.73
2023-03-26T04:41:13.246Z,99100.21
2023-03-26T04:56:38.236Z,99098.95
2023-03-26T05:11:41.400Z,99094.90
2023-03-26T05:26:43.970Z,99097.20
2023-03-26T05:41:49.471Z,99096.66
2023-03-26T05:56:53.011Z,99096.17
2023-03-26T06:11:55.974Z,99103.01
2023-03-26T06:26:58.822Z,99110.46
2023-03-26T06:42:01.542Z,99124.48
2023-03-26T06:57:05.483Z,99126.93
2023-03-26T07:12:12.681Z,99128.28
2023-03-26T07:27:40.541Z,99121.70
2023-03-26T07:42:46.316Z,99135.29
2023-03-26T07:58:11.650Z,99132.70
2023-03-26T08:13:25.437Z,99137.78
2023-03-26T08:28:37.911Z,99126.67
2023-03-26T08:43:55.105Z,99115.60
2023-03-26T08:59:20.473Z,99103.52
2023-03-26T09:14:51.483Z,99087.65
2023-03-26T09:30:13.325Z,99089.10
2023-03-26T09:45:18.614Z,99109.23
2023-03-26T10:00:35.525Z,99095.56
2023-03-26T10:16:05.606Z,99100.41
2023-03-26T10:31:29.721Z,99091.31
2023-03-26T10:47:04.694Z,99082.77
2023-03-26T11:02:39.222Z,99059.10
2023-03-26T11:18:08.108Z,99054.57
2023-03-26T11:33:18.343Z,99058.71
2023-03-26T11:48:28.316Z,99040.85
2023-03-26T12:03:31.946Z,99042.20
2023-03-26T12:18:35.104Z,99026.54
2023-03-26T12:33:39.064Z,99014.06
2023-03-26T12:48:42.077Z,99001.36
2023-03-26T13:04:07.146Z,98987.31
2023-03-26T13:19:20.680Z,98963.98
2023-03-26T13:34:41.413Z,98950.81
2023-03-26T13:49:49.653Z,98946.19
2023-03-26T14:04:58.532Z,98939.81
2023-03-26T14:20:22.673Z,98943.77
2023-03-26T14:35:35.227Z,98927.45
2023-03-26T14:51:19.872Z,98911.77
2023-03-26T15:06:55.192Z,98901.44
2023-03-26T15:22:19.894Z,98895.13
2023-03-26T15:37:56.704Z,98890.39
2023-03-26T15:53:11.754Z,98881.66
2023-03-26T16:08:28.593Z,98882.39
2023-03-26T16:23:47.300Z,98909.15
2023-03-26T16:39:12.130Z,98889.23
2023-03-26T16:54:17.594Z,98869.23
2023-03-26T17:09:31.696Z,98861.88
2023-03-26T17:24:42.822Z,98852.33
2023-03-26T17:40:12.339Z,98854.19
2023-03-26T17:55:19.767Z,98853.98
2023-03-26T18:10:51.883Z,98865.84
2023-03-26T18:26:09.828Z,98878.65
2023-03-26T18:41:27.355Z,98870.64
2023-03-26T18:56:35.294Z,98862.24
2023-03-26T19:11:40.545Z,98847.59
2023-03-26T19:26:44.131Z,98836.13
2023-03-26T19:41:51.435Z,98831.21
2023-03-26T19:56:54.021Z,98816.84
2023-03-26T20:11:56.899Z,98819.08
2023-03-26T20:26:59.476Z,98817.85
2023-03-26T20:42:02.167Z,98801.86
2023-03-26T20:57:04.823Z,98780.98
2023-03-26T21:12:16.912Z,98770.64
2023-03-26T21:27:43.590Z,98753.27
2023-03-26T21:42:49.749Z,98767.63
2023-03-26T21:58:12.288Z,98756.67
2023-03-26T22:13:15.314Z,98737.38
2023-03-26T22:28:19.641Z,98739.48
2023-03-26T22:43:22.295Z,98750.33
2023-03-26T22:58:25.464Z,98741.84
2023-03-26T23:13:28.276Z,98754.45
2023-03-26T23:28:32.172Z,98749.84
2023-03-26T23:43:35.099Z,98747.06
2023-03-26T23:58:37.728Z,98752.33
